createdAt,value
2023-01-25T00:01:14.201Z,53.90
2023-01-25T00:08:15.149Z,47.00
2023-01-25T00:10:43.366Z,43.70
2023-01-25T00:13:12.148Z,51.70
2023-01-25T00:15:40.435Z,47.90
2023-01-25T00:18:11.474Z,47.00
2023-01-25T00:20:39.596Z,45.20
2023-01-25T00:23:07.696Z,44.40
2023-01-25T00:25:36.461Z,40.90
2023-01-25T00:28:04.844Z,45.60
2023-01-25T00:30:33.113Z,45.00
2023-01-25T00:33:27.460Z,43.20
2023-01-25T00:35:58.229Z,42.80
2023-01-25T00:38:31.194Z,43.60
2023-01-25T00:40:59.312Z,41.70
2023-01-25T00:43:27.442Z,51.80
2023-01-25T00:46:01.345Z,43.60
2023-01-25T00:48:29.644Z,44.40
2023-01-25T00:51:01.912Z,45.00
2023-01-25T00:53:30.148Z,49.70
2023-01-25T00:55:58.499Z,46.50
2023-01-25T00:58:27.077Z,44.60
2023-01-25T01:00:55.700Z,50.70
2023-01-25T01:03:23.948Z,49.40
2023-01-25T01:06:05.468Z,52.90
2023-01-25T01:08:34.978Z,44.20
2023-01-25T01:11:06.210Z,53.80
2023-01-25T01:13:34.507Z,43.00
2023-01-25T01:16:04.997Z,47.30
2023-01-25T01:18:36.461Z,49.00
2023-01-25T01:23:33.149Z,48.90
2023-01-25T01:26:02.407Z,51.20
2023-01-25T01:28:31.402Z,54.00
2023-01-25T01:31:04.256Z,48.80
2023-01-25T01:33:36.117Z,55.70
2023-01-25T01:36:15.117Z,57.40
2023-01-25T01:38:43.338Z,58.40
2023-01-25T01:41:12.232Z,52.00
2023-01-25T01:43:40.583Z,49.50
2023-01-25T01:46:15.972Z,52.40
2023-01-25T01:48:53.470Z,47.10
2023-01-25T01:51:28.708Z,50.70
2023-01-25T01:54:00.036Z,46.80
2023-01-25T01:56:40.181Z,59.20
2023-01-25T01:59:09.381Z,45.70
2023-01-25T02:01:39.209Z,50.60
2023-01-25T02:04:07.928Z,51.80
2023-01-25T02:06:51.137Z,53.10
2023-01-25T02:09:23.893Z,49.40
2023-01-25T02:11:52.617Z,46.70
2023-01-25T02:14:20.853Z,45.50
2023-01-25T02:16:49.749Z,36.50
2023-01-25T02:19:25.899Z,37.70
2023-01-25T02:21:54.005Z,33.40
2023-01-25T02:24:26.519Z,34.40
2023-01-25T02:26:54.814Z,38.00
2023-01-25T02:29:24.322Z,37.00
2023-01-25T02:32:02.946Z,35.30
2023-01-25T02:34:31.352Z,36.80
2023-01-25T02:36:59.593Z,37.50
2023-01-25T02:39:28.213Z,38.80
2023-01-25T02:41:56.398Z,34.80
2023-01-25T02:44:33.364Z,37.00
2023-01-25T02:47:04.914Z,37.80
2023-01-25T02:49:36.929Z,39.30
2023-01-25T02:52:05.616Z,35.90
2023-01-25T02:54:33.789Z,33.60
2023-01-25T02:57:03.350Z,34.90
2023-01-25T02:59:37.462Z,44.00
2023-01-25T03:02:05.788Z,33.20
2023-01-25T03:04:33.956Z,33.20
2023-01-25T03:07:02.259Z,44.00
2023-01-25T03:09:30.557Z,33.70
2023-01-25T03:11:59.753Z,34.70
2023-01-25T03:14:27.965Z,36.70
2023-01-25T03:16:56.130Z,34.50
2023-01-25T03:19:25.123Z,38.10
2023-01-25T03:21:53.683Z,33.60
2023-01-25T03:24:21.954Z,32.20
2023-01-25T03:27:09.179Z,37.20
2023-01-25T03:29:46.419Z,34.80
2023-01-25T03:32:21.263Z,37.80
2023-01-25T03:34:50.778Z,40.10
2023-01-25T03:37:20.299Z,31.90
2023-01-25T03:39:49.035Z,30.60
2023-01-25T03:42:21.596Z,37.30
2023-01-25T03:44:53.146Z,35.40
2023-01-25T03:47:21.334Z,39.50
2023-01-25T03:49:50.120Z,30.70
2023-01-25T03:52:20.045Z,37.00
2023-01-25T03:54:50.526Z,32.60
2023-01-25T03:57:20.541Z,33.30
2023-01-25T04:00:07.720Z,40.20
2023-01-25T04:02:43.258Z,35.20
2023-01-25T04:05:16.111Z,34.10
2023-01-25T04:07:44.307Z,30.30
2023-01-25T04:10:14.298Z,29.40
2023-01-25T04:12:45.311Z,34.40
2023-01-25T04:15:13.593Z,33.80
2023-01-25T04:17:41.878Z,30.20
2023-01-25T04:20:18.335Z,32.40
2023-01-25T04:22:46.733Z,31.70
2023-01-25T04:25:15.539Z,31.30
2023-01-25T04:27:49.897Z,33.00
2023-01-25T04:30:18.846Z,32.40
2023-01-25T04:32:47.548Z,32.20
2023-01-25T04:35:27.593Z,34.30
2023-01-25T04:37:59.581Z,30.40
2023-01-25T04:40:32.329Z,39.60
2023-01-25T04:43:01.094Z,33.70
2023-01-25T04:45:30.504Z,33.70
2023-01-25T04:48:01.221Z,33.90
2023-01-25T04:50:30.228Z,31.50
2023-01-25T04:53:00.142Z,34.10
2023-01-25T04:55:30.224Z,37.30
2023-01-25T04:58:01.047Z,35.40
2023-01-25T05:00:29.923Z,35.50
2023-01-25T05:02:58.732Z,37.50
2023-01-25T05:05:27.415Z,32.70
2023-01-25T05:07:55.904Z,35.10
2023-01-25T05:10:24.132Z,40.80
2023-01-25T05:13:19.450Z,36.40
2023-01-25T05:15:49.308Z,36.30
2023-01-25T05:18:17.719Z,35.80
2023-01-25T05:20:46.023Z,32.10
2023-01-25T05:23:14.336Z,31.70
2023-01-25T05:26:01.937Z,34.00
2023-01-25T05:28:31.618Z,36.10
2023-01-25T05:31:17.734Z,39.60
2023-01-25T05:33:46.296Z,36.30
2023-01-25T05:36:14.414Z,38.40
2023-01-25T05:38:48.470Z,33.50
2023-01-25T05:41:16.699Z,36.20
2023-01-25T05:43:48.667Z,36.00
2023-01-25T05:48:48.273Z,36.40
2023-01-25T05:51:16.597Z,43.50
2023-01-25T05:53:44.662Z,41.10
2023-01-25T05:56:12.953Z,39.80
2023-01-25T05:58:41.766Z,39.20
2023-01-25T06:01:10.032Z,41.40
2023-01-25T06:03:47.968Z,40.30
2023-01-25T06:06:16.456Z,38.10
2023-01-25T06:08:45.571Z,43.90
2023-01-25T06:11:16.832Z,39.40
2023-01-25T06:13:47.823Z,36.00
2023-01-25T06:16:17.874Z,37.60
2023-01-25T06:19:07.631Z,37.10
2023-01-25T07:29:43.814Z,39.40
2023-01-25T07:32:14.004Z,39.90
2023-01-25T07:34:42.728Z,38.50
2023-01-25T07:37:10.925Z,42.50
2023-01-25T07:39:40.908Z,41.30
2023-01-25T07:42:09.058Z,41.70
2023-01-25T07:44:37.807Z,37.40
2023-01-25T07:47:24.491Z,37.60
2023-01-25T07:49:52.686Z,50.40
2023-01-25T07:52:20.804Z,37.50
2023-01-25T07:54:50.108Z,39.00
2023-01-25T07:57:18.239Z,38.70
2023-01-25T07:59:47.550Z,45.80
2023-01-25T08:02:15.756Z,39.90
2023-01-25T08:04:45.743Z,41.20
2023-01-25T08:07:14.365Z,51.00
2023-01-25T08:09:46.365Z,43.40
2023-01-25T08:12:14.466Z,51.00
2023-01-25T08:14:42.655Z,49.10
2023-01-25T08:17:11.218Z,43.70
2023-01-25T08:19:39.323Z,49.60
2023-01-25T08:22:08.689Z,51.50
2023-01-25T08:24:36.945Z,57.50
2023-01-25T08:27:07.505Z,48.70
2023-01-25T08:29:36.130Z,45.60
2023-01-25T08:32:06.670Z,45.00
2023-01-25T08:34:38.046Z,45.80
2023-01-25T08:37:06.573Z,54.70
2023-01-25T08:39:36.154Z,46.80
2023-01-25T08:42:04.733Z,40.80
2023-01-25T08:44:33.261Z,43.00
2023-01-25T08:47:02.332Z,48.80
2023-01-25T08:49:31.236Z,48.00
2023-01-25T08:51:59.320Z,46.30
2023-01-25T08:54:27.625Z,49.20
2023-01-25T08:56:55.955Z,55.90
2023-01-25T08:59:24.244Z,47.10
2023-01-25T09:01:52.834Z,47.80
2023-01-25T09:04:21.115Z,52.90
2023-01-25T09:06:51.218Z,48.40
2023-01-25T09:09:19.368Z,54.70
2023-01-25T09:11:47.683Z,50.40
2023-01-25T09:14:16.109Z,48.00
2023-01-25T09:16:44.267Z,46.10
2023-01-25T09:19:12.830Z,50.20
2023-01-25T09:21:41.070Z,50.60
2023-01-25T09:24:09.428Z,48.50
2023-01-25T09:26:39.397Z,47.50
2023-01-25T09:29:08.304Z,56.60
2023-01-25T09:31:40.802Z,56.30
2023-01-25T09:34:23.919Z,53.90
2023-01-25T09:36:52.172Z,57.80
2023-01-25T09:39:20.899Z,53.00
2023-01-25T09:42:15.754Z,51.30
2023-01-25T09:45:00.255Z,53.10
2023-01-25T09:47:53.532Z,51.50
2023-01-25T09:50:30.855Z,53.80
2023-01-25T09:53:10.943Z,56.30
2023-01-25T09:55:39.671Z,49.70
2023-01-25T09:58:13.458Z,52.70
2023-01-25T10:00:45.350Z,52.80
2023-01-25T10:03:26.253Z,53.50
2023-01-25T10:05:57.041Z,53.30
2023-01-25T10:08:34.444Z,56.30
2023-01-25T10:11:30.032Z,53.40
2023-01-25T10:13:58.414Z,63.40
2023-01-25T10:16:58.997Z,60.60
2023-01-25T10:19:52.108Z,59.00
2023-01-25T10:22:22.356Z,55.30
2023-01-25T10:24:53.490Z,51.00
2023-01-25T10:27:27.557Z,58.10
2023-01-25T10:29:57.281Z,62.10
2023-01-25T10:32:27.655Z,64.40
2023-01-25T10:34:57.556Z,63.80
2023-01-25T10:37:28.762Z,59.00
2023-01-25T10:40:02.211Z,65.40
2023-01-25T10:42:33.670Z,59.90
2023-01-25T10:45:13.324Z,65.60
2023-01-25T10:47:47.891Z,70.60
2023-01-25T10:50:39.028Z,69.10
2023-01-25T10:53:26.215Z,68.00
2023-01-25T10:56:11.476Z,66.10
2023-01-25T10:58:46.426Z,64.40
2023-01-25T11:01:40.887Z,71.70
2023-01-25T11:04:30.853Z,71.20
2023-01-25T11:06:59.635Z,73.70
2023-01-25T11:09:36.206Z,70.60
2023-01-25T11:12:13.761Z,68.70
2023-01-25T11:14:42.069Z,69.60
2023-01-25T11:17:31.680Z,66.90
2023-01-25T11:20:07.950Z,71.60
2023-01-25T11:22:36.858Z,66.20
2023-01-25T11:25:28.003Z,68.30
2023-01-25T11:28:12.579Z,66.50
2023-01-25T11:30:40.928Z,68.90
2023-01-25T11:33:13.015Z,68.90
2023-01-25T11:35:53.518Z,63.40
2023-01-25T11:38:22.376Z,71.00
2023-01-25T11:41:49.280Z,69.90
2023-01-25T11:44:32.460Z,77.30
2023-01-25T11:47:12.048Z,68.10
2023-01-25T11:49:51.547Z,70.80
2023-01-25T11:52:43.620Z,72.80
2023-01-25T11:55:27.426Z,84.50
2023-01-25T11:58:37.137Z,71.50
2023-01-25T12:01:28.054Z,70.30
2023-01-25T12:04:05.694Z,71.90
2023-01-25T12:06:41.002Z,74.10
2023-01-25T12:09:42.328Z,79.20
2023-01-25T12:12:20.922Z,75.10
2023-01-25T12:14:53.493Z,76.50
2023-01-25T12:17:58.825Z,74.20
2023-01-25T12:21:30.842Z,77.10
2023-01-25T12:24:18.386Z,73.40
2023-01-25T12:27:07.755Z,75.60
2023-01-25T12:29:45.425Z,79.20
2023-01-25T12:32:28.017Z,79.40
2023-01-25T12:35:30.902Z,71.40
2023-01-25T12:38:01.887Z,74.70
2023-01-25T12:40:43.363Z,77.20
2023-01-25T12:43:30.938Z,77.70
2023-01-25T12:46:10.656Z,70.20
2023-01-25T12:48:41.821Z,74.70
2023-01-25T12:51:13.925Z,70.90
2023-01-25T12:53:52.455Z,72.70
2023-01-25T12:56:25.975Z,69.10
2023-01-25T12:58:56.817Z,74.80
2023-01-25T13:01:31.047Z,80.80
2023-01-25T13:04:26.887Z,79.10
2023-01-25T13:07:16.380Z,83.40
2023-01-25T16:40:34.176Z,96.20
2023-01-25T16:43:03.059Z,93.20
2023-01-25T16:45:32.063Z,88.90
2023-01-25T16:48:01.995Z,86.80
2023-01-25T16:50:30.319Z,88.40
2023-01-25T16:53:00.178Z,90.70
2023-01-25T16:55:28.485Z,82.80
2023-01-25T16:57:56.633Z,88.20
2023-01-25T17:00:25.240Z,83.90
2023-01-25T17:02:59.254Z,87.40
2023-01-25T17:05:32.743Z,88.20
2023-01-25T17:08:01.138Z,90.90
2023-01-25T17:10:33.160Z,87.80
2023-01-25T17:13:01.337Z,90.50
2023-01-25T17:15:30.370Z,87.30
2023-01-25T17:17:58.631Z,85.20
2023-01-25T17:20:26.767Z,85.80
2023-01-25T17:22:55.068Z,80.70
2023-01-25T17:25:23.343Z,89.30
2023-01-25T17:27:53.882Z,74.00
2023-01-25T17:30:22.311Z,81.70
2023-01-25T17:32:50.486Z,77.50
2023-01-25T17:35:18.657Z,81.10
2023-01-25T17:37:46.907Z,79.60
2023-01-25T17:40:15.218Z,83.40
2023-01-25T17:42:43.379Z,82.60
2023-01-25T17:45:12.095Z,90.70
2023-01-25T17:47:40.559Z,92.20
2023-01-25T17:50:09.664Z,82.00
2023-01-25T17:52:38.030Z,82.80
2023-01-25T17:55:06.791Z,84.80
2023-01-25T17:57:37.293Z,90.00
2023-01-25T18:00:06.465Z,71.70
2023-01-25T18:02:43.923Z,76.10
2023-01-25T18:05:12.169Z,84.50
2023-01-25T18:07:40.536Z,83.00
2023-01-25T18:10:09.602Z,79.60
2023-01-25T18:12:38.294Z,87.70
2023-01-25T18:15:07.513Z,83.10
2023-01-25T18:17:38.379Z,79.10
2023-01-25T18:20:10.592Z,85.90
2023-01-25T18:22:39.148Z,82.00
2023-01-25T18:25:17.058Z,75.60
2023-01-25T18:27:45.208Z,79.40
2023-01-25T18:30:37.428Z,81.60
2023-01-25T18:33:05.810Z,77.50
2023-01-25T18:35:35.544Z,77.30
2023-01-25T18:38:03.664Z,79.30
2023-01-25T18:40:31.878Z,78.30
2023-01-25T18:43:01.633Z,77.00
2023-01-25T18:45:29.821Z,76.00
2023-01-25T18:47:57.980Z,81.60
2023-01-25T18:50:28.817Z,73.80
2023-01-25T18:52:57.305Z,82.20
2023-01-25T18:55:25.381Z,80.00
2023-01-25T18:57:53.742Z,72.40
2023-01-25T19:00:22.198Z,71.10
2023-01-25T19:02:50.519Z,74.90
2023-01-25T19:05:20.091Z,78.90
2023-01-25T19:07:48.286Z,76.40
2023-01-25T19:10:17.597Z,80.50
2023-01-25T19:12:45.873Z,70.10
2023-01-25T19:15:14.263Z,69.90
2023-01-25T19:17:42.676Z,67.80
2023-01-25T19:20:11.334Z,72.00
2023-01-25T19:22:40.652Z,71.50
2023-01-25T19:25:10.750Z,68.00
2023-01-25T19:27:39.868Z,65.60
2023-01-25T19:30:08.661Z,67.30
2023-01-25T19:32:38.254Z,76.60
2023-01-25T19:35:08.100Z,65.10
2023-01-25T19:37:37.018Z,75.50
2023-01-25T19:40:08.146Z,67.30
2023-01-25T19:42:36.664Z,67.20
2023-01-25T19:45:05.550Z,63.60
2023-01-25T19:47:33.722Z,70.90
2023-01-25T19:50:02.875Z,64.20
2023-01-25T19:52:31.369Z,67.80
2023-01-25T19:54:59.681Z,63.20
2023-01-25T19:57:27.801Z,64.60
2023-01-25T19:59:56.030Z,62.20
2023-01-25T20:02:24.433Z,69.10
2023-01-25T20:04:52.632Z,67.60
2023-01-25T20:07:22.430Z,65.40
2023-01-25T20:09:50.508Z,64.40
2023-01-25T20:12:18.621Z,67.90
2023-01-25T20:14:46.919Z,65.60
2023-01-25T20:17:15.109Z,65.20
2023-01-25T20:19:44.384Z,66.00
2023-01-25T20:22:12.732Z,62.80
2023-01-25T20:24:42.347Z,65.10
2023-01-25T20:27:10.570Z,67.80
2023-01-25T20:29:39.963Z,63.50
2023-01-25T20:32:09.686Z,62.10
2023-01-25T20:34:37.978Z,59.10
2023-01-25T20:37:06.094Z,64.20
2023-01-25T20:39:37.083Z,64.60
2023-01-25T20:42:05.464Z,62.30
2023-01-25T20:44:33.688Z,67.00
2023-01-25T20:47:01.837Z,67.20
2023-01-25T20:49:30.264Z,70.30
2023-01-25T20:51:58.615Z,61.00
2023-01-25T20:54:26.752Z,69.30
2023-01-25T20:56:55.224Z,66.50
2023-01-25T20:59:23.382Z,65.80
2023-01-25T21:01:52.692Z,66.40
2023-01-25T21:04:20.828Z,71.40
2023-01-25T21:06:49.016Z,65.00
2023-01-25T21:09:17.305Z,64.70
2023-01-25T21:11:45.396Z,60.40
2023-01-25T21:14:13.916Z,62.40
2023-01-25T21:16:44.502Z,60.00
2023-01-25T21:19:12.664Z,65.60
2023-01-25T21:21:40.759Z,59.40
2023-01-25T21:24:09.243Z,64.50
2023-01-25T21:26:38.472Z,61.60
2023-01-25T21:29:07.434Z,64.50
2023-01-25T21:31:37.565Z,64.70
2023-01-25T21:34:06.362Z,59.90
2023-01-25T21:36:34.943Z,58.10
2023-01-25T21:39:03.143Z,65.90
2023-01-25T21:41:33.731Z,60.30
2023-01-25T21:44:20.741Z,60.70
2023-01-25T21:47:16.363Z,58.60
2023-01-25T21:49:55.484Z,60.80
2023-01-25T21:52:23.639Z,60.70
2023-01-25T21:54:51.829Z,55.00
2023-01-25T21:57:20.664Z,56.50
2023-01-25T21:59:49.018Z,57.00
2023-01-25T22:02:17.843Z,57.90
2023-01-25T22:04:46.044Z,55.80
2023-01-25T22:07:14.544Z,56.50
2023-01-25T23:53:32.882Z,39.90
2023-01-25T23:56:02.448Z,45.00
2023-01-25T23:58:30.826Z,39.60
